Time;durP1;ratioP1;P1;durP2;ratioP2;P2;SDS_P1;SDS_P2;PMS_P1;PMS_P2;Temp;Humidity;BMP_temperature;BMP_pressure;BME280_temperature;BME280_humidity;BME280_pressure;Samples;Min_cycle;Max_cycle;Signal;HPM_P1;HPM_P2
2022/07/10 00:02:09;;;;;;;3.33;1.13;;;15.80;99.90;;;;;;5010897;28;20033;-70
2022/07/10 00:04:34;;;;;;;3.75;1.30;;;15.80;99.90;;;;;;5011008;28;20022;-70
2022/07/10 00:07:01;;;;;;;4.15;1.08;;;15.60;99.90;;;;;;5010045;28;20053;-71
2022/07/10 00:09:28;;;;;;;3.10;0.65;;;16.00;98.10;;;;;;5011248;28;20097;-70
2022/07/10 00:11:53;;;;;;;3.08;0.80;;;15.90;99.90;;;;;;5010749;28;20022;-71
2022/07/10 00:14:20;;;;;;;2.33;0.63;;;16.00;98.10;;;;;;5011221;28;20517;-71
2022/07/10 00:16:45;;;;;;;4.35;0.75;;;15.60;99.90;;;;;;5010114;28;20018;-70
2022/07/10 00:19:11;;;;;;;3.30;1.00;;;15.80;99.90;;;;;;5011109;28;20040;-70
2022/07/10 00:21:37;;;;;;;4.18;0.75;;;15.90;98.10;;;;;;5010537;28;20462;-70
2022/07/10 00:24:03;;;;;;;3.63;1.20;;;15.90;98.10;;;;;;5007445;28;20030;-71
2022/07/10 00:26:28;;;;;;;3.15;0.70;;;16.10;98.10;;;;;;5010370;28;20061;-70
2022/07/10 00:28:54;;;;;;;3.53;1.17;;;16.10;99.90;;;;;;5010800;28;20367;-71
2022/07/10 00:31:20;;;;;;;5.10;1.00;;;16.00;99.90;;;;;;5010289;28;20108;-70
2022/07/10 00:33:46;;;;;;;7.10;1.10;;;16.00;99.90;;;;;;5009371;28;20106;-70
2022/07/10 00:36:12;;;;;;;5.80;1.20;;;15.60;99.90;;;;;;5006379;28;20026;-70
2022/07/10 00:38:37;;;;;;;2.15;0.70;;;15.80;99.90;;;;;;5010565;28;20083;-71
2022/07/10 00:41:03;;;;;;;2.28;0.80;;;15.80;99.90;;;;;;5010412;28;20080;-70
2022/07/10 00:43:28;;;;;;;2.70;1.02;;;15.40;99.90;;;;;;5021696;28;20053;-71
2022/07/10 00:45:54;;;;;;;3.47;1.38;;;;;;;;;;5010538;28;20100;-70
2022/07/10 00:48:20;;;;;;;4.07;1.00;;;15.30;99.90;;;;;;5010097;28;20049;-71
2022/07/10 00:50:46;;;;;;;5.30;1.00;;;15.10;99.90;;;;;;5010218;28;20030;-71
2022/07/10 00:53:13;;;;;;;1.40;0.73;;;15.20;99.90;;;;;;5010148;28;20025;-70
2022/07/10 00:55:40;;;;;;;3.80;1.08;;;15.30;99.90;;;;;;5021700;28;20041;-71
2022/07/10 00:58:10;;;;;;;3.42;1.23;;;15.10;99.60;;;;;;5010366;28;20018;-71
2022/07/10 01:00:39;;;;;;;6.97;1.55;;;15.50;99.90;;;;;;5009219;28;20061;-71
2022/07/10 01:03:05;;;;;;;5.70;1.55;;;15.40;99.90;;;;;;5009879;28;20029;-70
2022/07/10 01:05:31;;;;;;;4.72;1.20;;;15.30;99.90;;;;;;5010627;28;20332;-71
2022/07/10 01:07:57;;;;;;;3.25;1.05;;;15.40;99.90;;;;;;5010191;28;20034;-71
2022/07/10 01:10:22;;;;;;;5.10;2.15;;;15.50;99.90;;;;;;5010430;28;20014;-71
2022/07/10 01:12:48;;;;;;;2.55;0.90;;;15.40;99.60;;;;;;5010162;28;20356;-71
2022/07/10 01:15:13;;;;;;;4.95;1.08;;;15.50;99.90;;;;;;5009822;28;20041;-71
2022/07/10 01:17:39;;;;;;;5.18;1.27;;;15.50;99.50;;;;;;5010670;28;20026;-71
2022/07/10 01:20:06;;;;;;;7.38;1.00;;;15.40;99.90;;;;;;5009714;28;20045;-71
2022/07/10 01:22:32;;;;;;;3.97;1.42;;;15.60;99.90;;;;;;5010157;28;20037;-71
2022/07/10 01:24:58;;;;;;;4.20;0.95;;;15.60;99.40;;;;;;5009948;28;20060;-71
2022/07/10 01:27:23;;;;;;;8.52;1.35;;;15.50;99.90;;;;;;5010374;28;20045;-71
2022/07/10 01:29:51;;;;;;;5.60;1.38;;;15.40;99.90;;;;;;5009433;28;20080;-70
2022/07/10 01:32:16;;;;;;;3.25;1.00;;;15.50;99.90;;;;;;5010180;28;20022;-71
2022/07/10 01:34:42;;;;;;;3.75;0.75;;;15.20;99.90;;;;;;5009785;28;20483;-71
2022/07/10 01:37:07;;;;;;;6.55;0.98;;;15.80;99.90;;;;;;5009589;28;20024;-71
2022/07/10 01:39:33;;;;;;;3.90;1.23;;;15.10;99.90;;;;;;5010348;28;20076;-71
2022/07/10 01:41:59;;;;;;;3.40;0.98;;;15.60;99.90;;;;;;5009498;28;20033;-71
2022/07/10 01:44:24;;;;;;;4.18;1.05;;;15.40;99.90;;;;;;5009656;28;20087;-71
2022/07/10 01:46:50;;;;;;;2.95;0.82;;;15.60;99.90;;;;;;5009494;28;20041;-71
2022/07/10 01:49:15;;;;;;;3.20;1.08;;;15.50;99.90;;;;;;5009691;28;20030;-71
2022/07/10 01:51:42;;;;;;;2.50;0.90;;;15.50;99.60;;;;;;5009631;28;20030;-71
2022/07/10 01:54:07;;;;;;;5.72;1.25;;;15.60;99.90;;;;;;5009488;28;20079;-71
2022/07/10 01:56:33;;;;;;;2.35;0.80;;;15.20;99.90;;;;;;5009710;28;20116;-70
2022/07/10 01:59:01;;;;;;;4.30;0.90;;;;;;;;;;5009063;28;20036;-71
2022/07/10 02:01:27;;;;;;;6.10;1.17;;;14.90;99.90;;;;;;5009605;28;20385;-71
2022/07/10 02:06:37;;;;;;;3.08;1.50;;;15.10;99.40;;;;;;5009329;28;20037;-71
2022/07/10 02:09:02;;;;;;;6.07;1.50;;;15.00;99.90;;;;;;5009125;28;20410;-71
2022/07/10 02:11:28;;;;;;;4.85;1.15;;;15.10;99.90;;;;;;5009032;28;20034;-71
2022/07/10 02:13:53;;;;;;;3.63;0.90;;;15.40;99.90;;;;;;5008684;28;20125;-71
2022/07/10 02:16:19;;;;;;;5.93;1.23;;;15.20;99.90;;;;;;5009365;28;20026;-71
2022/07/10 02:18:44;;;;;;;5.00;1.85;;;15.30;99.90;;;;;;5009027;28;20022;-70
2022/07/10 02:21:10;;;;;;;2.38;0.90;;;15.30;99.90;;;;;;5009105;28;20034;-71
2022/07/10 02:23:36;;;;;;;3.97;0.73;;;15.20;99.90;;;;;;5009247;28;20379;-71
2022/07/10 02:26:02;;;;;;;4.47;1.42;;;14.90;99.90;;;;;;5008316;28;20038;-70
2022/07/10 02:28:28;;;;;;;6.22;1.05;;;15.30;99.90;;;;;;5009118;28;20475;-70
2022/07/10 02:30:54;;;;;;;6.43;0.95;;;15.40;99.90;;;;;;5009035;28;20026;-71
2022/07/10 02:33:19;;;;;;;2.92;1.05;;;15.40;99.90;;;;;;5008943;28;20101;-71
2022/07/10 02:35:45;;;;;;;4.47;1.15;;;15.20;99.90;;;;;;5008957;28;20026;-70
2022/07/10 02:38:10;;;;;;;5.32;1.20;;;15.20;99.90;;;;;;5008962;28;20439;-71
2022/07/10 02:40:36;;;;;;;2.30;1.35;;;15.30;99.90;;;;;;5008474;28;20471;-71
2022/07/10 02:43:01;;;;;;;2.95;1.13;;;15.20;99.90;;;;;;5009098;28;20045;-71
2022/07/10 02:45:27;;;;;;;3.97;1.40;;;15.30;99.90;;;;;;5008859;28;20128;-71
2022/07/10 02:47:52;;;;;;;5.32;1.38;;;15.30;99.90;;;;;;5008875;28;20241;-70
2022/07/10 02:50:18;;;;;;;4.18;1.17;;;15.20;99.90;;;;;;5008870;28;20052;-71
2022/07/10 02:52:43;;;;;;;5.05;1.48;;;15.10;99.90;;;;;;5008698;28;20349;-71
2022/07/10 02:55:09;;;;;;;5.15;1.33;;;15.30;99.90;;;;;;5008408;28;20019;-71
2022/07/10 02:57:35;;;;;;;4.47;1.13;;;;;;;;;;5008942;28;20493;-70
2022/07/10 03:00:00;;;;;;;5.97;1.35;;;15.20;99.90;;;;;;5008519;28;20022;-71
2022/07/10 03:02:26;;;;;;;7.72;1.45;;;15.00;99.90;;;;;;5009487;28;20180;-71
2022/07/10 03:04:52;;;;;;;8.23;1.30;;;14.90;99.90;;;;;;5008839;28;20038;-70
2022/07/10 03:07:17;;;;;;;6.88;1.27;;;15.10;99.90;;;;;;5008857;28;20444;-71
2022/07/10 03:09:43;;;;;;;8.00;2.20;;;15.10;99.90;;;;;;5008141;28;20475;-71
2022/07/10 03:12:08;;;;;;;5.07;1.17;;;14.60;99.90;;;;;;5008686;28;20103;-71
2022/07/10 03:14:34;;;;;;;7.38;1.30;;;;;;;;;;5008774;28;20041;-71
2022/07/10 03:17:00;;;;;;;6.45;1.30;;;15.10;99.90;;;;;;5008230;28;20136;-71
2022/07/10 03:19:25;;;;;;;3.70;1.08;;;15.20;99.90;;;;;;5008663;28;20033;-70
2022/07/10 03:21:51;;;;;;;4.68;1.15;;;15.00;99.90;;;;;;5008587;28;20029;-71
2022/07/10 03:24:16;;;;;;;7.90;1.20;;;14.60;99.90;;;;;;5008254;28;20391;-71
2022/07/10 03:26:42;;;;;;;5.35;0.98;;;15.10;99.90;;;;;;5012043;28;20038;-70
2022/07/10 03:29:08;;;;;;;5.65;1.08;;;14.70;99.90;;;;;;5012281;28;20406;-71
2022/07/10 03:31:34;;;;;;;6.22;1.73;;;;;;;;;;5012529;28;20026;-70
2022/07/10 03:33:59;;;;;;;2.65;0.90;;;15.40;99.90;;;;;;5012112;28;20041;-71
2022/07/10 03:36:25;;;;;;;6.95;1.10;;;15.30;99.90;;;;;;5012208;28;20052;-70
2022/07/10 03:38:50;;;;;;;2.22;1.30;;;15.20;99.90;;;;;;5011987;28;20116;-70
2022/07/10 03:41:16;;;;;;;3.75;0.90;;;15.20;99.90;;;;;;5011984;28;20038;-71
2022/07/10 03:43:42;;;;;;;7.78;1.33;;;15.20;99.90;;;;;;5012263;28;20090;-71
2022/07/10 03:46:07;;;;;;;3.13;0.75;;;15.10;99.90;;;;;;5011858;28;20038;-70
2022/07/10 03:48:33;;;;;;;6.30;1.20;;;15.30;99.90;;;;;;5012065;28;20512;-71
2022/07/10 03:50:59;;;;;;;5.03;1.33;;;15.20;99.90;;;;;;5011992;28;20069;-70
2022/07/10 03:53:25;;;;;;;3.92;0.85;;;;;;;;;;5011520;28;20090;-70
2022/07/10 03:55:51;;;;;;;4.72;1.50;;;15.30;99.90;;;;;;5011786;28;20111;-71
2022/07/10 03:58:16;;;;;;;4.43;0.93;;;15.30;99.90;;;;;;4993912;28;20412;-71
2022/07/10 04:00:43;;;;;;;5.40;2.13;;;15.30;99.90;;;;;;4993993;28;20471;-70
2022/07/10 04:03:09;;;;;;;4.55;0.82;;;15.30;99.90;;;;;;5011613;28;20108;-71
2022/07/10 04:05:35;;;;;;;5.90;0.98;;;15.30;99.90;;;;;;5010327;28;20105;-71
2022/07/10 04:08:02;;;;;;;3.70;0.80;;;15.10;99.90;;;;;;5010782;28;20017;-70
2022/07/10 04:10:29;;;;;;;4.38;1.10;;;15.50;99.90;;;;;;5011686;28;20100;-71
2022/07/10 04:12:55;;;;;;;4.75;1.17;;;15.70;99.90;;;;;;5011538;28;20022;-71
2022/07/10 04:15:21;;;;;;;4.90;1.15;;;15.40;99.90;;;;;;5011137;28;20097;-70
2022/07/10 04:17:48;;;;;;;4.82;1.08;;;15.50;99.90;;;;;;5011334;28;20028;-71
2022/07/10 04:20:14;;;;;;;3.17;0.93;;;15.50;99.90;;;;;;5010944;28;20060;-70
2022/07/10 04:22:40;;;;;;;6.22;0.95;;;15.60;99.90;;;;;;5011297;28;20026;-70
2022/07/10 04:25:07;;;;;;;3.22;1.10;;;15.70;99.90;;;;;;5010237;28;20483;-70
2022/07/10 04:27:32;;;;;;;2.63;1.08;;;15.50;99.90;;;;;;5010832;28;20042;-70
2022/07/10 04:29:58;;;;;;;4.47;1.00;;;15.60;99.90;;;;;;5010681;28;20030;-70
2022/07/10 04:32:24;;;;;;;7.07;1.20;;;15.50;99.90;;;;;;5009825;28;20040;-71
2022/07/10 04:34:49;;;;;;;3.00;1.20;;;15.30;99.90;;;;;;5002993;28;20026;-70
2022/07/10 04:37:15;;;;;;;3.55;0.85;;;15.60;99.90;;;;;;5009077;28;20359;-70
2022/07/10 04:39:41;;;;;;;3.08;0.80;;;15.70;99.90;;;;;;5010425;28;20032;-70
2022/07/10 04:42:07;;;;;;;5.38;1.02;;;15.70;99.90;;;;;;5008030;28;20104;-70
2022/07/10 04:44:33;;;;;;;4.93;1.20;;;15.70;99.90;;;;;;5010355;28;20030;-70
2022/07/10 04:46:59;;;;;;;3.00;0.73;;;;;;;;;;5008574;28;20092;-71
2022/07/10 04:49:25;;;;;;;5.18;1.02;;;15.80;99.90;;;;;;5009961;28;20057;-70
2022/07/10 04:51:51;;;;;;;5.30;0.98;;;15.50;99.90;;;;;;5009800;28;20036;-70
2022/07/10 04:54:17;;;;;;;3.35;0.90;;;15.60;99.90;;;;;;5005092;28;20117;-71
2022/07/10 04:56:42;;;;;;;6.18;1.00;;;15.80;99.90;;;;;;5023641;28;20379;-71
2022/07/10 04:59:09;;;;;;;4.00;1.15;;;15.70;99.90;;;;;;5010188;28;20477;-70
2022/07/10 05:01:34;;;;;;;2.42;0.88;;;15.70;99.90;;;;;;5010621;28;20026;-71
2022/07/10 05:04:00;;;;;;;3.70;1.02;;;15.70;99.90;;;;;;5010277;28;20490;-71
2022/07/10 05:06:26;;;;;;;2.10;0.82;;;15.90;99.90;;;;;;5009869;28;20399;-70
2022/07/10 05:08:51;;;;;;;3.58;1.10;;;16.00;99.90;;;;;;5010437;28;20362;-71
2022/07/10 05:11:17;;;;;;;4.07;0.60;;;16.10;99.90;;;;;;5010373;28;20083;-71
2022/07/10 05:13:45;;;;;;;6.28;0.98;;;16.00;99.90;;;;;;5010049;28;20030;-70
2022/07/10 05:16:12;;;;;;;6.75;1.20;;;15.90;99.90;;;;;;5010289;28;20034;-71
2022/07/10 05:18:39;;;;;;;8.60;1.98;;;16.20;99.90;;;;;;5010231;28;20080;-71
2022/07/10 05:21:04;;;;;;;4.38;1.17;;;16.10;99.90;;;;;;5009482;28;20054;-71
2022/07/10 05:23:30;;;;;;;7.35;1.13;;;16.10;99.90;;;;;;5010696;28;20037;-70
2022/07/10 05:25:56;;;;;;;9.20;1.48;;;16.00;99.90;;;;;;5010031;28;20037;-71
2022/07/10 05:28:22;;;;;;;3.90;0.77;;;16.10;99.90;;;;;;5009793;28;20131;-71
2022/07/10 05:30:48;;;;;;;9.93;1.13;;;16.20;99.90;;;;;;5009893;28;20030;-71
2022/07/10 05:33:15;;;;;;;4.28;1.00;;;16.30;99.90;;;;;;5009975;28;20029;-71
2022/07/10 05:35:41;;;;;;;4.70;0.70;;;16.30;99.90;;;;;;5009422;28;20061;-71
2022/07/10 05:38:06;;;;;;;4.70;1.27;;;16.30;99.90;;;;;;5009929;28;20121;-70
2022/07/10 05:40:32;;;;;;;4.78;0.93;;;16.40;99.90;;;;;;5009926;28;20109;-71
2022/07/10 05:42:58;;;;;;;3.95;0.95;;;16.60;99.90;;;;;;5009610;28;20112;-71
2022/07/10 05:45:24;;;;;;;4.60;1.05;;;16.40;99.70;;;;;;5009898;28;20045;-71
2022/07/10 05:47:50;;;;;;;4.30;1.13;;;16.60;99.70;;;;;;5008960;28;20098;-71
2022/07/10 05:50:15;;;;;;;8.65;1.75;;;16.50;99.70;;;;;;5008960;28;20444;-71
2022/07/10 05:52:41;;;;;;;4.00;0.85;;;16.50;99.70;;;;;;5009375;28;20022;-71
2022/07/10 05:55:07;;;;;;;5.22;1.10;;;16.50;99.80;;;;;;5009538;28;20100;-71
2022/07/10 05:57:34;;;;;;;6.25;1.20;;;16.50;99.80;;;;;;5009902;28;20113;-71
2022/07/10 05:59:59;;;;;;;4.07;1.20;;;16.50;99.80;;;;;;5009479;28;20026;-71
2022/07/10 06:02:25;;;;;;;4.93;1.20;;;16.40;99.90;;;;;;5009910;28;20034;-71
2022/07/10 06:04:51;;;;;;;5.93;0.93;;;16.50;99.90;;;;;;5008749;28;20050;-71
2022/07/10 06:07:16;;;;;;;5.70;1.40;;;16.50;99.90;;;;;;5009308;28;20093;-71
2022/07/10 06:09:42;;;;;;;6.40;1.13;;;16.50;99.90;;;;;;5009589;28;20029;-71
2022/07/10 06:12:08;;;;;;;7.32;1.27;;;16.50;99.90;;;;;;5009199;28;20018;-71
2022/07/10 06:14:33;;;;;;;5.30;0.75;;;16.30;99.90;;;;;;5009387;28;20439;-71
2022/07/10 06:16:59;;;;;;;4.55;0.95;;;;;;;;;;5008950;28;20018;-71
2022/07/10 06:19:25;;;;;;;6.75;1.65;;;16.60;99.00;;;;;;5008905;28;20135;-70
2022/07/10 06:22:30;;;;;;;3.60;0.90;;;16.50;99.90;;;;;;5009043;28;20034;-71
2022/07/10 06:24:36;;;;;;;9.85;1.30;;;16.70;99.90;;;;;;5008968;28;20049;-71
2022/07/10 06:27:05;;;;;;;8.43;1.40;;;17.00;99.90;;;;;;5008918;28;20038;-71
2022/07/10 06:29:30;;;;;;;3.97;0.98;;;16.20;99.90;;;;;;5009328;28;20061;-71
2022/07/10 06:31:56;;;;;;;7.47;1.88;;;16.20;99.90;;;;;;5008944;28;20058;-71
2022/07/10 06:34:22;;;;;;;9.13;1.27;;;16.40;99.90;;;;;;5008640;28;20447;-71
2022/07/10 06:36:47;;;;;;;4.82;1.85;;;16.30;99.90;;;;;;5008849;28;20100;-71
2022/07/10 06:39:13;;;;;;;4.75;1.10;;;16.10;99.90;;;;;;5008782;28;20456;-71
2022/07/10 06:41:38;;;;;;;4.85;2.20;;;17.30;99.90;;;;;;5009087;28;20499;-71
2022/07/10 06:44:04;;;;;;;3.38;0.98;;;16.40;99.90;;;;;;5008553;28;20026;-71
2022/07/10 06:46:30;;;;;;;9.85;1.27;;;16.30;99.90;;;;;;4991449;28;20468;-71
2022/07/10 06:48:56;;;;;;;4.60;1.25;;;16.20;99.90;;;;;;5008199;28;20030;-71
2022/07/10 06:51:22;;;;;;;7.57;1.08;;;16.30;99.90;;;;;;5008779;28;20029;-71
2022/07/10 06:53:47;;;;;;;4.30;1.48;;;16.30;99.90;;;;;;5008604;28;20030;-70
2022/07/10 06:56:15;;;;;;;8.50;1.65;;;17.40;99.90;;;;;;5008549;28;20341;-71
2022/07/10 06:58:41;;;;;;;9.90;1.60;;;16.20;99.90;;;;;;5008930;28;20400;-71
2022/07/10 07:01:06;;;;;;;5.95;1.42;;;16.20;99.90;;;;;;5011731;28;20037;-71
2022/07/10 07:03:32;;;;;;;8.30;1.40;;;16.10;99.90;;;;;;5012457;28;20034;-71
2022/07/10 07:05:57;;;;;;;4.85;1.40;;;16.10;99.90;;;;;;5012537;28;20048;-71
2022/07/10 07:08:23;;;;;;;6.50;1.25;;;16.10;99.90;;;;;;5012422;28;20022;-71
2022/07/10 07:10:48;;;;;;;6.32;1.55;;;16.10;99.90;;;;;;5012732;28;20026;-71
2022/07/10 07:13:14;;;;;;;10.18;1.55;;;16.10;99.90;;;;;;5012335;28;20030;-71
2022/07/10 07:15:42;;;;;;;6.30;1.73;;;16.10;99.90;;;;;;5012547;28;20041;-71
2022/07/10 07:18:11;;;;;;;6.93;2.50;;;16.20;99.90;;;;;;5011984;28;20046;-71
2022/07/10 07:23:22;;;;;;;7.30;2.60;;;16.00;99.90;;;;;;5012340;28;20490;-71
2022/07/10 07:25:48;;;;;;;10.18;1.70;;;16.00;99.90;;;;;;5012161;28;20037;-71
2022/07/10 07:28:18;;;;;;;7.47;2.08;;;16.10;99.90;;;;;;4994461;28;20032;-71
2022/07/10 07:30:44;;;;;;;5.07;2.20;;;16.20;99.90;;;;;;5011623;28;20022;-71
2022/07/10 07:33:10;;;;;;;7.80;1.88;;;16.40;99.90;;;;;;5012109;28;20022;-71
2022/07/10 07:35:36;;;;;;;10.50;2.00;;;16.30;99.90;;;;;;5011981;28;20030;-71
2022/07/10 07:38:02;;;;;;;8.77;1.80;;;16.10;99.90;;;;;;5012065;28;20040;-71
2022/07/10 07:40:28;;;;;;;6.75;1.92;;;16.40;99.90;;;;;;5012092;28;20030;-73
2022/07/10 07:42:55;;;;;;;9.38;1.98;;;16.50;99.90;;;;;;5012007;28;20117;-73
2022/07/10 07:45:24;;;;;;;5.57;2.22;;;16.40;99.90;;;;;;5011331;28;20042;-74
2022/07/10 07:47:59;;;;;;;7.28;1.77;;;16.50;99.90;;;;;;5011567;28;20084;-73
2022/07/10 07:50:26;;;;;;;4.93;1.58;;;16.50;99.90;;;;;;5012128;28;20038;-74
2022/07/10 07:52:53;;;;;;;5.07;1.48;;;17.30;99.90;;;;;;5011543;28;20044;-74
2022/07/10 07:55:20;;;;;;;5.05;1.50;;;16.80;99.90;;;;;;5011715;28;20037;-74
2022/07/10 07:57:46;;;;;;;6.90;1.95;;;17.00;99.90;;;;;;5011500;28;20083;-74
2022/07/10 08:00:13;;;;;;;4.80;1.48;;;17.10;99.90;;;;;;5011101;28;20033;-74
2022/07/10 08:02:40;;;;;;;7.82;2.28;;;17.10;99.90;;;;;;5011578;28;20545;-74
2022/07/10 08:05:06;;;;;;;7.50;2.10;;;18.00;99.90;;;;;;5011136;28;20168;-75
2022/07/10 08:07:40;;;;;;;10.52;1.63;;;17.30;99.90;;;;;;5011698;28;20454;-74
2022/07/10 08:10:09;;;;;;;8.65;1.33;;;17.00;99.90;;;;;;5011215;28;20030;-74
2022/07/10 08:12:34;;;;;;;5.70;1.45;;;17.10;99.90;;;;;;4992590;28;20475;-73
2022/07/10 08:15:00;;;;;;;3.53;1.17;;;17.10;99.90;;;;;;5010202;28;20034;-73
2022/07/10 08:17:27;;;;;;;5.68;1.30;;;17.20;99.90;;;;;;5011323;28;20018;-74
2022/07/10 08:19:53;;;;;;;4.25;1.30;;;17.20;99.90;;;;;;5010787;28;20417;-74
2022/07/10 08:22:18;;;;;;;6.20;1.30;;;17.20;99.90;;;;;;5011329;28;20106;-74
2022/07/10 08:24:44;;;;;;;5.28;1.77;;;17.50;99.90;;;;;;5011154;28;20099;-74
2022/07/10 08:27:09;;;;;;;5.15;1.20;;;18.10;99.90;;;;;;5010856;28;20114;-74
2022/07/10 08:29:35;;;;;;;5.63;1.55;;;18.90;99.90;;;;;;5010542;28;20025;-74
2022/07/10 08:32:01;;;;;;;12.00;2.00;;;18.10;99.90;;;;;;4993091;28;20040;-75
2022/07/10 08:34:27;;;;;;;4.10;1.10;;;19.00;99.90;;;;;;5011196;28;20050;-74
2022/07/10 08:36:53;;;;;;;7.38;1.63;;;18.30;99.90;;;;;;5010747;28;20113;-74
2022/07/10 08:39:21;;;;;;;5.05;1.50;;;21.00;99.90;;;;;;5010870;28;20097;-74
2022/07/10 08:41:50;;;;;;;5.03;1.25;;;18.60;99.60;;;;;;4993182;28;20129;-74
2022/07/10 08:44:18;;;;;;;6.32;1.05;;;18.70;99.40;;;;;;5010221;28;20022;-74
2022/07/10 08:46:45;;;;;;;7.25;1.30;;;18.80;98.40;;;;;;5010737;28;20120;-74
2022/07/10 08:49:11;;;;;;;4.97;1.35;;;18.80;99.10;;;;;;5010799;28;20026;-74
2022/07/10 08:51:43;;;;;;;10.15;2.22;;;18.70;98.90;;;;;;5010908;28;20026;-74
2022/07/10 08:54:09;;;;;;;4.18;1.35;;;18.60;99.20;;;;;;5010363;28;20018;-74
2022/07/10 08:56:36;;;;;;;3.45;1.25;;;18.30;99.00;;;;;;5010758;28;20383;-74
2022/07/10 08:59:04;;;;;;;6.78;1.40;;;18.30;99.20;;;;;;5009826;28;20026;-74
2022/07/10 09:01:30;;;;;;;6.03;1.63;;;18.30;99.40;;;;;;5010717;28;20445;-74
2022/07/10 09:03:55;;;;;;;6.72;1.60;;;18.30;99.40;;;;;;5010404;28;20029;-74
2022/07/10 09:06:21;;;;;;;10.35;1.83;;;18.50;99.30;;;;;;5010357;28;20068;-74
2022/07/10 09:08:58;;;;;;;4.55;1.08;;;18.60;98.90;;;;;;5010187;28;20029;-74
2022/07/10 09:11:26;;;;;;;3.42;1.00;;;19.30;99.40;;;;;;5010505;28;20430;-74
2022/07/10 09:13:53;;;;;;;5.10;0.93;;;19.00;98.40;;;;;;5009703;28;20030;-74
2022/07/10 09:16:32;;;;;;;5.38;0.90;;;19.60;98.30;;;;;;5010695;28;20026;-74
2022/07/10 09:19:17;;;;;;;3.80;1.27;;;19.30;97.40;;;;;;5010055;28;20440;-74
2022/07/10 09:21:44;;;;;;;5.93;1.00;;;19.50;97.00;;;;;;5010055;28;20163;-74
2022/07/10 09:24:09;;;;;;;5.38;1.08;;;19.70;97.20;;;;;;5009913;28;20029;-74
2022/07/10 09:26:37;;;;;;;4.00;1.50;;;20.50;97.00;;;;;;5009559;28;20046;-74
2022/07/10 09:29:08;;;;;;;3.58;1.30;;;19.80;96.60;;;;;;5009762;28;20021;-74
2022/07/10 09:31:52;;;;;;;1.95;0.82;;;19.80;96.70;;;;;;5010078;28;20128;-74
2022/07/10 09:37:44;;;;;;;2.00;0.65;;;20.00;95.40;;;;;;5009543;28;20508;-72
2022/07/10 09:40:10;;;;;;;5.20;0.93;;;20.80;95.80;;;;;;5009712;28;20030;-74
2022/07/10 09:42:38;;;;;;;1.92;0.93;;;19.80;95.60;;;;;;5009287;28;20026;-73
2022/07/10 09:45:12;;;;;;;3.38;1.00;;;19.90;95.90;;;;;;5009337;28;20080;-74
2022/07/10 09:47:58;;;;;;;3.42;1.30;;;20.00;95.90;;;;;;5009844;28;20032;-74
2022/07/10 09:50:36;;;;;;;2.80;1.20;;;20.10;95.00;;;;;;5009801;28;20482;-74
2022/07/10 09:53:06;;;;;;;3.83;1.20;;;20.10;95.90;;;;;;5009204;28;20029;-74
2022/07/10 09:55:34;;;;;;;3.30;1.00;;;19.80;95.70;;;;;;5009388;28;20486;-74
2022/07/10 09:58:04;;;;;;;4.30;1.02;;;19.70;95.80;;;;;;5009079;28;20025;-74
2022/07/10 10:00:32;;;;;;;2.47;1.00;;;19.80;96.10;;;;;;5009986;28;20026;-74
2022/07/10 10:03:03;;;;;;;2.78;1.02;;;19.70;95.80;;;;;;5009277;28;20046;-74
2022/07/10 10:05:55;;;;;;;3.55;0.95;;;19.70;95.70;;;;;;5009376;28;20121;-74
2022/07/10 10:08:54;;;;;;;2.95;1.38;;;19.80;94.80;;;;;;4991569;28;20029;-74
2022/07/10 10:11:21;;;;;;;1.98;0.95;;;19.90;94.70;;;;;;5008746;28;20109;-74
2022/07/10 10:13:48;;;;;;;2.10;1.08;;;20.00;94.90;;;;;;5008999;28;20022;-73
2022/07/10 10:16:14;;;;;;;1.90;0.70;;;20.10;94.70;;;;;;4991272;28;20497;-75
2022/07/10 10:20:36;;;;;;;5.45;1.60;;;21.20;94.70;;;;;;5009075;28;20037;-74
2022/07/10 10:21:29;;;;;;;3.08;1.10;;;20.30;94.40;;;;;;5008947;28;20136;-74
2022/07/10 10:23:55;;;;;;;4.32;1.00;;;20.40;94.50;;;;;;5008639;28;20227;-75
2022/07/10 10:26:22;;;;;;;2.80;1.00;;;20.60;94.30;;;;;;5008561;28;20057;-74
2022/07/10 10:28:50;;;;;;;3.88;1.08;;;20.80;94.10;;;;;;5009022;28;20026;-74
2022/07/10 10:31:18;;;;;;;2.72;0.77;;;20.90;93.90;;;;;;5008806;28;20041;-74
2022/07/10 10:33:45;;;;;;;3.30;0.70;;;21.00;93.70;;;;;;5008838;28;20030;-73
2022/07/10 10:36:13;;;;;;;3.53;0.82;;;21.00;93.50;;;;;;5008323;28;20479;-75
2022/07/10 10:38:45;;;;;;;1.63;0.60;;;21.10;93.50;;;;;;5008755;28;20026;-75
2022/07/10 10:41:26;;;;;;;5.85;1.10;;;21.10;93.60;;;;;;5008317;28;20072;-75
2022/07/10 10:44:07;;;;;;;8.32;1.27;;;21.00;92.70;;;;;;5008522;28;20105;-75
2022/07/10 10:46:33;;;;;;;5.22;0.90;;;20.90;93.50;;;;;;5009053;28;20684;-75
2022/07/10 10:49:06;;;;;;;2.75;1.00;;;21.20;93.10;;;;;;5008710;28;20022;-75
2022/07/10 10:52:06;;;;;;;1.23;0.50;;;21.10;93.10;;;;;;5008951;28;20138;-74
2022/07/10 10:54:55;;;;;;;3.05;0.82;;;21.10;92.30;;;;;;5008518;28;20424;-75
2022/07/10 10:57:22;;;;;;;1.40;0.68;;;21.10;92.10;;;;;;5008508;28;20036;-74
2022/07/10 10:59:52;;;;;;;3.60;0.95;;;21.10;92.50;;;;;;5008304;28;20022;-74
2022/07/10 11:02:32;;;;;;;2.22;0.65;;;21.20;91.90;;;;;;5008667;28;20053;-74
2022/07/10 11:05:19;;;;;;;2.47;0.75;;;21.30;92.00;;;;;;5008631;28;20114;-73
2022/07/10 11:07:56;;;;;;;3.90;1.00;;;21.20;92.10;;;;;;5008554;28;20092;-74
2022/07/10 11:10:35;;;;;;;3.60;1.30;;;21.10;92.80;;;;;;5008622;28;20453;-74
2022/07/10 11:13:17;;;;;;;2.45;0.60;;;21.30;92.80;;;;;;5008228;28;20026;-74
2022/07/10 11:15:45;;;;;;;2.47;0.80;;;23.70;92.00;;;;;;5008543;28;20478;-74
2022/07/10 11:18:16;;;;;;;1.52;0.93;;;21.50;92.30;;;;;;5008370;28;20022;-74
2022/07/10 11:20:50;;;;;;;1.42;0.63;;;21.60;92.00;;;;;;5008376;28;20062;-74
2022/07/10 11:23:55;;;;;;;2.25;0.60;;;21.80;90.80;;;;;;5007763;28;20022;-74
2022/07/10 11:26:29;;;;;;;2.28;1.20;;;21.90;90.90;;;;;;5008331;28;20173;-73
2022/07/10 11:29:01;;;;;;;1.88;0.73;;;22.50;91.70;;;;;;5008256;28;20018;-73
2022/07/10 11:31:27;;;;;;;2.58;1.00;;;21.60;90.90;;;;;;5008735;28;20026;-73
2022/07/10 11:33:54;;;;;;;2.00;1.05;;;21.50;92.10;;;;;;5008176;28;20493;-74
2022/07/10 11:36:26;;;;;;;1.02;0.55;;;21.50;91.90;;;;;;5008337;28;20022;-74
2022/07/10 11:39:04;;;;;;;1.52;0.60;;;21.50;92.10;;;;;;5007818;28;20478;-74
2022/07/10 11:41:30;;;;;;;1.33;0.65;;;21.50;92.10;;;;;;5008583;28;20026;-74
2022/07/10 11:44:01;;;;;;;2.30;0.80;;;21.40;91.70;;;;;;5008373;28;20032;-74
2022/07/10 11:46:31;;;;;;;1.05;0.60;;;21.30;91.10;;;;;;5010465;28;20116;-74
2022/07/10 11:48:58;;;;;;;2.05;0.95;;;21.10;92.30;;;;;;5011722;28;20034;-73
2022/07/10 11:51:26;;;;;;;1.33;0.82;;;21.20;92.20;;;;;;5011742;28;20052;-73
2022/07/10 11:53:57;;;;;;;2.17;0.77;;;21.40;92.40;;;;;;5011521;28;20026;-73
2022/07/10 11:56:24;;;;;;;2.13;0.85;;;21.50;91.40;;;;;;5011637;28;20052;-73
2022/07/10 11:59:04;;;;;;;3.30;0.77;;;21.40;91.90;;;;;;5011657;28;20121;-73
2022/07/10 12:01:34;;;;;;;2.33;0.80;;;21.70;92.00;;;;;;5011793;28;20056;-72
2022/07/10 12:04:02;;;;;;;3.22;1.38;;;22.00;91.50;;;;;;5011483;28;20532;-73
2022/07/10 12:06:32;;;;;;;6.13;1.30;;;21.90;91.30;;;;;;5011048;28;20137;-72
2022/07/10 12:09:12;;;;;;;2.38;0.70;;;21.80;90.50;;;;;;5011539;28;20030;-73
2022/07/10 12:11:39;;;;;;;4.45;1.13;;;21.90;91.90;;;;;;5011441;28;20045;-73
2022/07/10 12:14:19;;;;;;;4.95;1.17;;;21.80;91.50;;;;;;5011295;28;20528;-73
2022/07/10 12:16:47;;;;;;;3.50;1.05;;;21.80;91.70;;;;;;5011148;28;20105;-73
2022/07/10 12:19:15;;;;;;;1.55;0.75;;;21.80;91.40;;;;;;5011276;28;20030;-73
2022/07/10 12:21:46;;;;;;;5.72;1.00;;;21.80;91.40;;;;;;5010836;28;20507;-73
2022/07/10 12:24:15;;;;;;;2.75;0.90;;;22.00;91.30;;;;;;4993593;28;20478;-73
2022/07/10 12:26:43;;;;;;;2.88;1.33;;;22.10;90.80;;;;;;5010100;28;20042;-72
2022/07/10 12:29:23;;;;;;;1.98;0.70;;;22.10;90.70;;;;;;5010597;28;20366;-72
2022/07/10 12:31:50;;;;;;;4.53;1.15;;;22.40;90.10;;;;;;5010241;28;20036;-73
2022/07/10 12:34:17;;;;;;;2.17;1.00;;;22.40;90.40;;;;;;5009144;28;20026;-73
2022/07/10 12:36:47;;;;;;;1.70;0.75;;;22.50;90.20;;;;;;5009852;28;20057;-73
2022/07/10 12:39:15;;;;;;;4.45;0.90;;;22.30;90.20;;;;;;5010504;28;20051;-73
2022/07/10 12:42:02;;;;;;;2.90;0.82;;;22.20;90.20;;;;;;5010115;28;20022;-73
2022/07/10 12:44:37;;;;;;;2.40;0.60;;;22.20;90.50;;;;;;5010669;28;20022;-73
2022/07/10 12:47:08;;;;;;;2.90;1.25;;;22.40;89.00;;;;;;5006073;28;20045;-73
2022/07/10 12:49:47;;;;;;;1.75;0.50;;;22.50;89.50;;;;;;5010161;28;20114;-73
2022/07/10 12:52:23;;;;;;;1.75;0.70;;;22.60;89.50;;;;;;5009876;28;20490;-73
2022/07/10 12:54:48;;;;;;;2.70;0.60;;;22.70;89.20;;;;;;5010166;28;20029;-73
2022/07/10 12:57:14;;;;;;;1.45;0.77;;;23.00;87.90;;;;;;5020112;28;20767;-73
2022/07/10 12:59:41;;;;;;;2.40;0.80;;;23.00;87.40;;;;;;5013387;28;20033;-73
2022/07/10 13:02:21;;;;;;;3.22;0.73;;;23.10;87.10;;;;;;5010435;28;20102;-74